createdAt,value
2019-03-18T00:01:49.719Z,2.50
2019-03-18T00:04:19.082Z,2.40
2019-03-18T00:06:48.389Z,2.60
2019-03-18T00:09:17.709Z,2.60
2019-03-18T00:11:47.059Z,3.13
2019-03-18T00:14:16.368Z,2.60
2019-03-18T00:16:45.733Z,2.93
2019-03-18T00:19:15.073Z,3.10
2019-03-18T00:21:44.377Z,2.80
2019-03-18T00:24:13.699Z,3.17
2019-03-18T00:26:43.065Z,3.17
2019-03-18T00:29:12.413Z,3.53
2019-03-18T00:31:41.742Z,3.70
2019-03-18T00:34:11.053Z,3.10
2019-03-18T00:36:40.375Z,3.20
2019-03-18T00:39:10.016Z,2.93
2019-03-18T00:41:39.190Z,3.23
2019-03-18T00:44:08.327Z,2.57
2019-03-18T00:46:37.534Z,3.60
2019-03-18T00:49:06.682Z,3.10
2019-03-18T00:51:35.825Z,3.60
2019-03-18T00:54:05.055Z,3.90
2019-03-18T00:56:34.191Z,4.53
2019-03-18T00:59:03.519Z,4.60
2019-03-18T01:01:32.689Z,5.37
2019-03-18T01:04:01.823Z,5.00
2019-03-18T01:06:31.192Z,4.10
2019-03-18T01:09:00.512Z,3.57
2019-03-18T01:11:29.650Z,3.17
2019-03-18T01:13:58.829Z,2.57
2019-03-18T01:16:27.958Z,2.07
2019-03-18T01:18:57.165Z,2.33
2019-03-18T01:21:26.394Z,2.53
2019-03-18T01:23:55.531Z,2.70
2019-03-18T01:26:24.889Z,2.80
2019-03-18T01:28:54.038Z,3.00
2019-03-18T01:31:23.192Z,2.50
2019-03-18T01:33:52.405Z,2.50
2019-03-18T01:36:21.550Z,2.20
2019-03-18T01:38:50.686Z,1.93
2019-03-18T01:41:19.837Z,1.83
2019-03-18T01:43:49.043Z,1.60
2019-03-18T01:46:18.330Z,2.23
2019-03-18T01:48:47.501Z,2.03
2019-03-18T01:51:16.653Z,3.30
2019-03-18T01:53:45.810Z,3.80
2019-03-18T01:56:15.185Z,4.00
2019-03-18T01:58:44.353Z,4.10
2019-03-18T02:01:13.566Z,4.30
2019-03-18T02:03:42.815Z,4.23
2019-03-18T02:06:12.077Z,4.13
2019-03-18T02:08:41.204Z,3.70
2019-03-18T02:11:10.365Z,4.00
2019-03-18T02:13:39.505Z,3.73
2019-03-18T02:16:08.638Z,4.30
2019-03-18T02:18:37.806Z,4.30
2019-03-18T02:21:06.944Z,4.07
2019-03-18T02:23:36.069Z,4.50
2019-03-18T02:26:05.245Z,4.30
2019-03-18T02:28:34.494Z,4.40
2019-03-18T02:31:03.639Z,4.43
2019-03-18T02:33:32.858Z,4.80
2019-03-18T02:36:02.055Z,5.17
2019-03-18T02:38:31.246Z,5.30
2019-03-18T02:41:00.590Z,5.27
2019-03-18T02:43:29.729Z,5.03
2019-03-18T02:46:09.798Z,5.50
2019-03-18T02:48:29.892Z,5.50
2019-03-18T02:50:59.028Z,5.50
2019-03-18T02:53:28.159Z,6.57
2019-03-18T02:55:57.422Z,7.37
2019-03-18T02:58:26.577Z,7.60
2019-03-18T03:00:55.805Z,6.97
2019-03-18T03:03:25.033Z,6.70
2019-03-18T03:05:54.185Z,6.70
2019-03-18T03:08:23.370Z,6.30
2019-03-18T03:10:52.517Z,5.70
2019-03-18T03:13:21.657Z,5.90
2019-03-18T03:15:50.851Z,6.43
2019-03-18T03:18:20.025Z,5.93
2019-03-18T03:20:49.171Z,5.73
2019-03-18T03:23:18.316Z,5.00
2019-03-18T03:25:47.600Z,5.27
2019-03-18T03:28:16.786Z,5.37
2019-03-18T03:30:45.943Z,5.83
2019-03-18T03:33:15.090Z,6.53
2019-03-18T03:35:44.293Z,7.03
2019-03-18T03:38:13.455Z,7.33
2019-03-18T03:40:42.606Z,7.53
2019-03-18T03:43:11.766Z,6.90
2019-03-18T03:45:40.971Z,6.40
2019-03-18T03:48:10.190Z,6.00
2019-03-18T03:50:39.326Z,5.73
2019-03-18T03:53:08.498Z,5.63
2019-03-18T03:55:37.655Z,6.10
2019-03-18T03:58:07.078Z,5.47
2019-03-18T04:00:36.766Z,5.20
2019-03-18T04:03:06.099Z,5.13
2019-03-18T04:05:35.227Z,4.20
2019-03-18T04:08:04.568Z,5.43
2019-03-18T04:10:33.710Z,4.70
2019-03-18T04:13:02.957Z,4.83
2019-03-18T04:15:32.175Z,6.07
2019-03-18T04:18:01.313Z,5.80
2019-03-18T04:20:30.446Z,5.00
2019-03-18T04:22:59.587Z,5.90
2019-03-18T04:25:28.743Z,5.07
2019-03-18T04:27:57.891Z,5.40
2019-03-18T04:30:27.116Z,5.60
2019-03-18T04:32:56.266Z,5.30
2019-03-18T04:35:25.395Z,4.67
2019-03-18T04:37:54.674Z,4.47
2019-03-18T04:40:23.809Z,4.30
2019-03-18T04:42:52.947Z,4.47
2019-03-18T04:45:22.118Z,5.30
2019-03-18T04:47:51.253Z,5.90
2019-03-18T04:50:20.675Z,5.60
2019-03-18T04:52:49.809Z,5.57
2019-03-18T04:55:19.165Z,6.00
2019-03-18T04:57:48.487Z,5.40
2019-03-18T05:00:17.692Z,5.90
2019-03-18T05:02:46.985Z,4.93
2019-03-18T05:05:16.127Z,5.43
2019-03-18T05:07:45.353Z,6.10
2019-03-18T05:10:14.573Z,6.30
2019-03-18T05:12:43.749Z,6.40
2019-03-18T05:15:12.909Z,5.87
2019-03-18T05:17:42.047Z,6.50
2019-03-18T05:20:11.257Z,7.03
2019-03-18T05:22:40.461Z,7.40
2019-03-18T05:25:10.203Z,6.83
2019-03-18T05:27:39.485Z,6.80
2019-03-18T05:30:09.021Z,6.40
2019-03-18T05:32:38.313Z,5.50
2019-03-18T05:35:07.550Z,5.93
2019-03-18T05:37:36.761Z,5.87
2019-03-18T05:40:06.269Z,5.77
2019-03-18T05:42:35.421Z,5.53
2019-03-18T05:45:04.635Z,5.80
2019-03-18T05:47:39.131Z,6.27
2019-03-18T05:50:04.865Z,6.97
2019-03-18T05:52:34.282Z,7.40
2019-03-18T05:55:03.441Z,8.30
2019-03-18T05:57:32.573Z,8.83
2019-03-18T06:00:01.769Z,9.60
2019-03-18T06:02:30.942Z,10.30
2019-03-18T06:05:00.266Z,9.30
2019-03-18T06:07:29.725Z,10.00
2019-03-18T06:09:58.942Z,10.63
2019-03-18T06:12:28.242Z,11.67
2019-03-18T06:14:57.593Z,13.40
2019-03-18T06:17:26.777Z,13.40
2019-03-18T06:19:55.934Z,13.07
2019-03-18T06:22:26.001Z,13.57
2019-03-18T06:24:55.236Z,13.00
2019-03-18T06:27:24.387Z,14.37
2019-03-18T06:29:53.614Z,13.40
2019-03-18T06:32:22.810Z,13.37
2019-03-18T06:34:51.978Z,13.97
2019-03-18T06:37:21.331Z,13.20
2019-03-18T06:39:50.614Z,12.87
2019-03-18T06:42:19.821Z,12.60
2019-03-18T06:44:48.992Z,12.27
2019-03-18T06:47:18.209Z,13.60
2019-03-18T06:49:47.477Z,13.60
2019-03-18T06:52:16.645Z,12.33
2019-03-18T06:54:45.857Z,12.33
2019-03-18T06:57:15.123Z,11.93
2019-03-18T06:59:44.266Z,12.93
2019-03-18T07:02:13.494Z,12.47
2019-03-18T07:04:42.632Z,12.27
2019-03-18T07:07:11.841Z,11.00
2019-03-18T07:09:41.302Z,11.43
2019-03-18T07:12:10.464Z,10.83
2019-03-18T07:14:45.142Z,10.50
2019-03-18T07:17:14.279Z,9.97
2019-03-18T07:19:43.614Z,11.40
2019-03-18T07:22:15.806Z,11.23
2019-03-18T07:24:45.001Z,11.90
2019-03-18T07:27:14.249Z,12.00
2019-03-18T07:29:43.497Z,12.40
2019-03-18T07:32:12.679Z,12.60
2019-03-18T07:34:42.289Z,13.83
2019-03-18T07:37:11.727Z,15.17
2019-03-18T07:39:41.144Z,15.57
2019-03-18T07:42:10.771Z,15.97
2019-03-18T07:44:40.046Z,16.80
2019-03-18T07:47:09.349Z,14.43
2019-03-18T07:49:38.742Z,15.37
2019-03-18T07:52:07.929Z,14.93
2019-03-18T07:54:37.152Z,14.47
2019-03-18T07:57:06.402Z,14.47
2019-03-18T07:59:44.654Z,14.10
2019-03-18T08:02:13.841Z,16.03
2019-03-18T08:04:46.458Z,16.67
2019-03-18T08:07:15.605Z,14.93
2019-03-18T08:09:44.806Z,14.53
2019-03-18T08:12:14.022Z,14.23
2019-03-18T08:14:43.246Z,14.20
2019-03-18T08:17:12.610Z,13.77
2019-03-18T08:19:41.793Z,13.57
2019-03-18T08:22:10.930Z,13.07
2019-03-18T08:24:40.185Z,14.07
2019-03-18T08:27:09.339Z,14.53
2019-03-18T08:29:41.525Z,14.87
2019-03-18T08:32:11.915Z,15.13
2019-03-18T08:34:44.541Z,13.93
2019-03-18T08:37:13.681Z,14.57
2019-03-18T08:39:42.935Z,13.70
2019-03-18T08:42:12.464Z,14.77
2019-03-18T08:44:41.824Z,13.33
2019-03-18T08:47:11.001Z,14.00
2019-03-18T08:49:40.182Z,14.67
2019-03-18T08:52:09.333Z,13.57
2019-03-18T08:54:38.489Z,13.40
2019-03-18T08:57:10.663Z,13.73
2019-03-18T08:59:39.825Z,15.80
2019-03-18T09:02:09.165Z,14.67
2019-03-18T09:04:38.342Z,13.17
2019-03-18T09:07:07.683Z,14.23
2019-03-18T12:45:53.646Z,5.83
2019-03-18T12:48:22.877Z,6.13
2019-03-18T12:50:56.155Z,5.27
2019-03-18T12:53:23.030Z,5.50
2019-03-18T12:55:53.099Z,6.50
2019-03-18T12:58:22.369Z,5.33
2019-03-18T13:00:51.622Z,5.73
2019-03-18T13:03:20.885Z,4.43
2019-03-18T13:05:50.098Z,4.40
2019-03-18T13:08:19.326Z,6.07
2019-03-18T13:10:48.598Z,5.77
2019-03-18T13:13:17.838Z,5.83
2019-03-18T13:19:18.766Z,6.50
2019-03-18T13:21:47.998Z,6.97
2019-03-18T13:24:17.149Z,8.00
2019-03-18T13:26:46.302Z,9.77
2019-03-18T13:29:15.557Z,8.40
2019-03-18T13:31:44.725Z,7.33
2019-03-18T13:34:13.987Z,7.90
2019-03-18T13:36:43.292Z,7.30
2019-03-18T13:39:12.483Z,7.77
2019-03-18T13:41:41.714Z,6.43
2019-03-18T13:44:10.935Z,6.47
2019-03-18T13:46:40.128Z,5.90
2019-03-18T13:49:09.287Z,8.37
2019-03-18T13:51:38.445Z,9.93
2019-03-18T13:54:07.694Z,5.90
2019-03-18T13:56:36.855Z,6.73
2019-03-18T13:59:06.021Z,6.33
2019-03-18T14:01:35.169Z,7.57
2019-03-18T14:04:04.427Z,7.83
2019-03-18T14:06:33.753Z,6.40
2019-03-18T14:09:03.418Z,6.30
2019-03-18T14:11:32.586Z,6.23
2019-03-18T14:14:01.745Z,5.10
2019-03-18T14:16:30.954Z,5.90
2019-03-18T14:19:00.128Z,5.77
2019-03-18T14:21:33.604Z,5.03
2019-03-18T14:24:00.218Z,3.60
2019-03-18T14:26:29.374Z,3.50
2019-03-18T14:28:58.521Z,3.53
2019-03-18T14:31:27.665Z,4.30
2019-03-18T14:33:56.810Z,4.23
2019-03-18T14:36:26.004Z,4.80
2019-03-18T14:38:55.246Z,5.60
2019-03-18T14:41:24.402Z,7.53
2019-03-18T14:43:53.615Z,8.60
2019-03-18T14:46:22.769Z,6.30
2019-03-18T14:48:51.937Z,6.00
2019-03-18T14:51:21.129Z,6.27
2019-03-18T14:53:50.298Z,5.83
2019-03-18T14:56:19.515Z,6.07
2019-03-18T14:58:48.672Z,5.67
2019-03-18T15:01:17.834Z,7.70
2019-03-18T15:03:47.059Z,6.13
2019-03-18T15:06:16.346Z,7.40
2019-03-18T15:08:45.601Z,7.60
2019-03-18T15:11:14.751Z,6.07
2019-03-18T15:13:44.003Z,8.27
2019-03-18T15:16:13.290Z,6.10
2019-03-18T15:18:42.452Z,8.30
2019-03-18T15:21:11.609Z,11.50
2019-03-18T15:23:40.763Z,14.70
2019-03-18T15:26:09.917Z,7.73
2019-03-18T15:28:39.221Z,13.70
2019-03-18T15:31:08.377Z,11.50
2019-03-18T15:33:37.598Z,12.17
2019-03-18T15:36:06.840Z,10.83
2019-03-18T15:38:36.001Z,8.77
2019-03-18T15:41:05.174Z,8.30
2019-03-18T15:43:34.326Z,7.40
2019-03-18T15:46:03.616Z,6.70
2019-03-18T15:48:32.862Z,6.40
2019-03-18T15:51:02.045Z,7.40
2019-03-18T15:53:31.205Z,9.63
2019-03-18T15:56:00.374Z,10.77
2019-03-18T15:58:29.513Z,12.03
2019-03-18T16:00:58.694Z,7.27
2019-03-18T16:03:27.837Z,8.13
2019-03-18T16:05:56.978Z,8.83
2019-03-18T16:08:26.149Z,8.23
2019-03-18T16:10:55.293Z,5.93
2019-03-18T16:13:24.445Z,8.00
2019-03-18T16:15:53.615Z,8.93
2019-03-18T16:18:22.769Z,10.17
2019-03-18T16:20:51.994Z,9.20
2019-03-18T16:23:21.182Z,9.10
2019-03-18T16:25:50.333Z,8.63
2019-03-18T16:28:19.472Z,8.27
2019-03-18T16:30:48.753Z,8.17
2019-03-18T16:33:17.894Z,9.70
2019-03-18T16:35:47.150Z,12.10
2019-03-18T16:38:16.309Z,13.40
2019-03-18T16:40:45.489Z,10.80
2019-03-18T16:43:14.712Z,14.97
2019-03-18T16:45:43.878Z,20.60
2019-03-18T16:48:13.053Z,20.30
2019-03-18T16:50:42.210Z,19.43
2019-03-18T16:53:11.364Z,13.10
2019-03-18T16:55:40.626Z,12.50
2019-03-18T16:58:09.770Z,11.50
2019-03-18T17:00:38.910Z,10.73
2019-03-18T17:03:08.069Z,14.03
2019-03-18T17:05:37.266Z,15.80
2019-03-18T17:08:06.482Z,17.00
2019-03-18T17:10:35.648Z,18.87
2019-03-18T17:13:04.875Z,21.47
2019-03-18T17:15:34.078Z,18.17
2019-03-18T17:18:03.327Z,18.60
2019-03-18T17:20:32.484Z,17.07
2019-03-18T17:23:01.698Z,16.47
2019-03-18T17:25:31.018Z,19.97
2019-03-18T17:28:00.281Z,23.70
2019-03-18T17:30:29.553Z,21.73
2019-03-18T17:32:58.695Z,25.53
2019-03-18T17:35:27.937Z,21.80
2019-03-18T17:37:57.195Z,20.57
2019-03-18T17:40:26.406Z,20.03
2019-03-18T17:42:55.730Z,17.97
2019-03-18T17:45:24.954Z,19.23
2019-03-18T17:47:54.121Z,19.07
2019-03-18T17:50:23.333Z,16.33
2019-03-18T17:53:02.256Z,17.73
2019-03-18T17:55:23.430Z,16.87
2019-03-18T17:57:52.578Z,17.50
2019-03-18T18:00:24.604Z,17.43
2019-03-18T18:02:53.766Z,18.23
2019-03-18T18:05:23.001Z,17.20
2019-03-18T18:07:52.268Z,22.33
2019-03-18T18:10:21.598Z,24.43
2019-03-18T18:12:50.738Z,22.53
2019-03-18T18:15:19.910Z,24.77
2019-03-18T18:17:49.080Z,23.40
2019-03-18T18:20:18.234Z,22.10
2019-03-18T18:22:47.507Z,21.97
2019-03-18T18:25:16.749Z,23.43
2019-03-18T18:27:45.979Z,24.43
2019-03-18T18:30:15.340Z,23.87
2019-03-18T18:32:44.575Z,25.57
2019-03-18T18:35:13.807Z,28.53
2019-03-18T18:37:43.096Z,26.60
2019-03-18T18:40:13.006Z,24.57
2019-03-18T18:42:42.213Z,23.23
2019-03-18T18:45:11.828Z,22.37
2019-03-18T18:47:41.059Z,20.97
2019-03-18T18:50:10.390Z,21.40
2019-03-18T18:52:39.665Z,20.20
2019-03-18T18:55:09.245Z,20.27
2019-03-18T18:57:38.466Z,22.23
2019-03-18T19:00:09.761Z,22.57
2019-03-18T19:02:38.941Z,22.83
2019-03-18T19:05:09.306Z,25.87
2019-03-18T19:07:38.445Z,24.67
2019-03-18T19:10:08.734Z,24.63
2019-03-18T19:12:37.886Z,23.57
2019-03-18T19:15:09.793Z,22.93
2019-03-18T19:17:38.974Z,22.90
2019-03-18T19:20:08.691Z,21.67
2019-03-18T19:22:37.857Z,21.63
2019-03-18T19:25:08.882Z,19.70
2019-03-18T19:27:38.078Z,19.10
2019-03-18T19:30:10.025Z,18.73
2019-03-18T19:32:43.409Z,19.47
2019-03-18T19:35:14.916Z,20.03
2019-03-18T19:37:53.767Z,23.03
2019-03-18T19:40:23.270Z,23.23
2019-03-18T19:42:52.430Z,23.83
2019-03-18T19:45:21.589Z,25.57
2019-03-18T19:47:53.005Z,27.80
2019-03-18T19:50:21.913Z,28.13
2019-03-18T19:52:51.154Z,28.43
2019-03-18T19:55:20.406Z,31.80
2019-03-18T19:57:49.682Z,32.27
2019-03-18T20:00:20.021Z,35.17
2019-03-18T20:02:49.284Z,35.50
2019-03-18T20:05:19.013Z,38.53
2019-03-18T20:07:48.402Z,36.67
2019-03-18T20:10:17.630Z,38.67
2019-03-18T20:12:46.868Z,34.57
2019-03-18T20:15:17.323Z,33.33
2019-03-18T20:17:46.488Z,34.87
2019-03-18T20:20:18.557Z,33.97
2019-03-18T20:22:47.750Z,32.83
2019-03-18T20:25:16.943Z,33.93
2019-03-18T20:27:46.098Z,34.40
2019-03-18T20:30:15.817Z,32.93
2019-03-18T20:32:45.146Z,32.77
2019-03-18T20:35:14.547Z,33.37
2019-03-18T20:37:43.737Z,36.13
2019-03-18T20:40:14.338Z,38.40
2019-03-18T20:42:43.726Z,34.07
2019-03-18T20:45:14.148Z,34.17
2019-03-18T20:47:43.470Z,34.33
2019-03-18T20:50:14.138Z,35.47
2019-03-18T20:52:43.397Z,34.73
2019-03-18T20:55:12.976Z,34.20
2019-03-18T20:57:42.311Z,35.40
2019-03-18T21:00:12.486Z,32.20
2019-03-18T21:02:41.701Z,32.47
2019-03-18T21:05:10.914Z,32.13
2019-03-18T21:07:40.142Z,32.90
2019-03-18T21:10:09.709Z,32.27
2019-03-18T21:12:41.232Z,31.90
2019-03-18T21:15:09.768Z,32.20
2019-03-18T21:17:38.909Z,29.83
2019-03-18T21:20:10.513Z,29.83
2019-03-18T21:22:39.655Z,29.57
2019-03-18T21:25:09.005Z,28.77
2019-03-18T21:27:38.159Z,32.80
2019-03-18T21:30:07.918Z,30.47
2019-03-18T21:32:37.078Z,28.23
2019-03-18T21:35:06.627Z,27.80
2019-03-18T21:37:35.868Z,26.43
2019-03-18T21:40:05.710Z,26.87
2019-03-18T21:42:35.346Z,24.87
2019-03-18T21:45:04.869Z,23.97
2019-03-18T21:47:34.093Z,24.80
2019-03-18T21:50:03.287Z,25.77
2019-03-18T21:52:32.446Z,24.30
2019-03-18T21:55:01.678Z,23.93
2019-03-18T21:57:30.914Z,21.90
2019-03-18T22:00:00.075Z,20.53
2019-03-18T22:02:29.234Z,20.83
2019-03-18T22:04:58.586Z,21.93
2019-03-18T22:07:27.833Z,22.27
2019-03-18T22:09:57.062Z,21.90
2019-03-18T22:12:26.214Z,21.87
2019-03-18T22:14:55.346Z,21.97
2019-03-18T22:17:24.798Z,23.53
2019-03-18T22:19:53.957Z,22.23
2019-03-18T22:22:23.100Z,21.40
2019-03-18T22:24:52.322Z,20.80
2019-03-18T22:27:21.553Z,21.60
2019-03-18T22:29:50.786Z,20.57
2019-03-18T22:32:19.977Z,21.33
2019-03-18T22:34:49.123Z,20.80
2019-03-18T22:37:18.301Z,20.47
2019-03-18T22:39:47.446Z,22.13
2019-03-18T22:42:16.690Z,22.00
2019-03-18T22:44:45.915Z,21.97
2019-03-18T22:47:15.102Z,21.87
2019-03-18T22:49:44.242Z,21.20
2019-03-18T22:52:13.377Z,20.67
2019-03-18T22:54:42.633Z,21.23
2019-03-18T22:57:11.948Z,19.13
2019-03-18T22:59:41.105Z,20.23
2019-03-18T23:02:10.673Z,20.83
2019-03-18T23:04:39.813Z,21.73
2019-03-18T23:07:08.961Z,20.40
2019-03-18T23:09:38.105Z,22.17
2019-03-18T23:12:07.305Z,20.00
2019-03-18T23:14:36.482Z,20.77
2019-03-18T23:17:05.622Z,21.37
2019-03-18T23:19:34.774Z,21.47
2019-03-18T23:22:03.952Z,21.63
2019-03-18T23:24:33.112Z,23.17
2019-03-18T23:27:02.254Z,22.40
2019-03-18T23:29:31.490Z,21.20
2019-03-18T23:32:00.702Z,21.23
2019-03-18T23:34:29.845Z,22.83
2019-03-18T23:36:59.006Z,24.03
2019-03-18T23:40:08.093Z,22.43
2019-03-18T23:42:37.235Z,22.47
2019-03-18T23:45:06.554Z,22.20
2019-03-18T23:47:35.858Z,22.30
2019-03-18T23:50:05.467Z,21.40
2019-03-18T23:52:34.681Z,20.70
2019-03-18T23:55:04.257Z,19.50
2019-03-18T23:57:33.504Z,19.83
